ADDS METAR Data INFO
IDs: Format: Raw Decoded Include TAF

Data at: 0214 UTC 18 Jan 2018

KMLB 180153Z 30015G21KT 10SM BKN044 13/07 A3024 RMK AO2 SLP238 T01330067
KMLB 180053Z 32010G16KT 10SM CLR 15/09 A3022 RMK AO2 SLP232 T01500094
KMLB 172353Z 30012KT 10SM CLR 17/09 A3020 RMK AO2 SLP225 T01670089 10239 20167 53018
KMLB 172253Z 30008KT 10SM FEW060 19/08 A3017 RMK AO2 SLP214 T01940083
KMLB 172153Z 28009KT 10SM CLR 22/08 A3016 RMK AO2 SLP212 T02170078
KMLB 172053Z 30014KT 10SM CLR 23/06 A3015 RMK AO2 SLP208 T02280061 56017
KMLB 171953Z 30010KT 10SM CLR 23/05 A3015 RMK AO2 SLP208 T02330050
KMLB 171853Z 26010G15KT 10SM CLR 24/04 A3016 RMK AO2 SLP213 T02390044
KMLB 171753Z 30010KT 10SM CLR 23/09 A3020 RMK AO2 SLP224 T02280089 10228 20094 58022
KMLB 171653Z 31007KT 10SM CLR 22/10 A3022 RMK AO2 SLP232 T02170100
KMLB 171553Z 33005KT 10SM CLR 21/11 A3025 RMK AO2 SLP242 T02060106
KMLB 171453Z 34006KT 10SM CLR 18/11 A3026 RMK AO2 SLP246 T01780106 51011
KMLB 171353Z 30007KT 10SM CLR 14/12 A3025 RMK AO2 SLP243 T01390117
KMLB 171253Z 28005KT 10SM SCT048 11/10 A3024 RMK AO2 SLP240 T01110100
KMLB 171153Z 29003KT 8SM FEW046 10/09 A3023 RMK AO2 SLP235 T01000094 10122 20094 53008
KMLB 171053Z 30004KT 7SM CLR 10/09 A3021 RMK AO2 SLP229 T01000094
KMLB 170953Z AUTO 29005KT 6SM BR CLR 10/09 A3021 RMK AO2 SLP230 T01000094
KMLB 170853Z AUTO 30004KT 7SM CLR 11/10 A3021 RMK AO2 SLP227 T01060100 56014
KMLB 170753Z AUTO 31003KT 7SM CLR 11/10 A3021 RMK AO2 SLP230 T01060100
KMLB 170653Z AUTO 31003KT 7SM CLR 11/10 A3023 RMK AO2 SLP236 T01060100
KMLB 170553Z AUTO 29004KT 9SM CLR 12/11 A3025 RMK AO2 SLP242 T01220111 10156 20111 56015
KMLB 170453Z 00000KT 7SM CLR 12/11 A3026 RMK AO2 SLP244 T01170111 402280089
KMLB 170353Z 32003KT 10SM CLR 12/11 A3028 RMK AO2 SLP253 T01220111
KMLB 170253Z 33005KT 10SM CLR 14/12 A3029 RMK AO2 SLP257 T01390122 51008
KMLB 170153Z 35006KT 10SM CLR 15/13 A3029 RMK AO2 SLP256 T01500128
KMLB 170053Z 35010KT 10SM CLR 16/13 A3028 RMK AO2 SLP254 T01560128
KMLB 162353Z 36011KT 10SM CLR 16/13 A3027 RMK AO2 SLP249 T01560128 10228 20156 50000
KMLB 162253Z 36011KT 10SM CLR 17/12 A3027 RMK AO2 SLP250 T01670122
KMLB 162153Z 01008KT 10SM CLR 19/12 A3027 RMK AO2 SLP249 T01940122
KMLB 162053Z 02009KT 10SM CLR 22/11 A3027 RMK AO2 SLP249 T02170106 56016
KMLB 161953Z 02010KT 10SM FEW040 22/10 A3027 RMK AO2 SLP250 T02220100
KMLB 161853Z 04009KT 10SM SCT040 22/10 A3028 RMK AO2 SLP254 T02220100
KMLB 161753Z 02010KT 10SM CLR 22/11 A3031 RMK AO2 SLP264 T02220106 10222 20094 58015
KMLB 161653Z 01009KT 10SM FEW025 22/12 A3034 RMK AO2 SLP272 T02170117
KMLB 161553Z 01009KT 10SM FEW042 21/12 A3036 RMK AO2 SLP281 T02060117
KMLB 161453Z 01008KT 10SM FEW043 19/13 A3036 RMK AO2 SLP279 T01940128 51009